SBGL

RIOgaleão – Tom Jobim International  Airport

Rio De Janeiro, Brazil

SBGL 191900Z 13006KT 9000 -RA FEW025 SCT030 BKN070 25/22 Q1007 RETS

Observed Flight Rules
Nov-19 @ 19:00 UTC (51 minutes ago)
 
Visual Flight Rules
Wind Visibility Clouds Conditions
130° at 6 knots 8,996 meters
  • Few at 2,500' AGL
  • Scattered at 3,000' AGL
  • Broken at 7,000' AGL
  • Light Rain
Temperatures Readings
Current 25°C / 77°F
Dewpoint 22°C / 72°F
Humidity 83%
Altimeter 29.73" Hg
Pressure 1007 hPa
Elevation 6
Observed Flight Rules
Nov-19 @ 19:00 UTC
(51 minutes ago)
 
VFR
Wind Visibility
130° at 6 knots 8,996 meters
Clouds
  • Few at 2,500' AGL
  • Scattered at 3,000' AGL
  • Broken at 7,000' AGL
Conditions
  • Light Rain
Temperature Dewpoint
25°C / 77°F 22°C / 72°F
Humidity Altimeter Pressure
83% 29.73" Hg 1007 hPa